Time;durP1;ratioP1;P1;durP2;ratioP2;P2;SDS_P1;SDS_P2;PMS_P1;PMS_P2;Temp;Humidity;BMP_temperature;BMP_pressure;BME280_temperature;BME280_humidity;BME280_pressure;Samples;Min_cycle;Max_cycle;Signal;HPM_P1;HPM_P2
2023/12/06 07:22:49;;;;;;;88.40;41.90;;;;;;;-5.87;85.42;99825.31;217512;1260;223390;-65
2023/12/06 07:27:55;;;;;;;97.10;42.00;;;;;;;-5.75;85.69;99828.45;217689;1257;140509;-64
2023/12/06 07:33:00;;;;;;;88.90;40.40;;;;;;;-5.62;85.75;99830.35;217708;1257;140596;-64
2023/12/06 07:38:08;;;;;;;89.60;38.60;;;;;;;-5.46;85.80;99839.70;217864;1258;140549;-66
2023/12/06 07:43:14;;;;;;;72.50;29.30;;;;;;;-5.33;85.84;99841.34;217685;1260;140530;-66
2023/12/06 07:48:20;;;;;;;84.20;40.10;;;;;;;-5.18;86.15;99836.09;217547;1257;141181;-66
2023/12/06 07:53:25;;;;;;;88.20;38.80;;;;;;;-5.02;86.19;99837.81;218120;1257;140868;-70
2023/12/06 07:58:30;;;;;;;97.80;38.20;;;;;;;-4.86;85.89;99840.05;217966;1256;247681;-67
2023/12/06 08:03:35;;;;;;;84.00;37.90;;;;;;;-4.80;85.73;99837.05;218315;1257;141677;-67
2023/12/06 08:08:39;;;;;;;90.80;43.50;;;;;;;-4.72;85.39;99834.66;219480;1256;142567;-67
2023/12/06 08:13:44;;;;;;;87.10;39.00;;;;;;;-4.60;85.45;99826.27;220207;1256;141467;-71
2023/12/06 08:18:48;;;;;;;63.70;27.60;;;;;;;-4.50;85.14;99821.17;220268;1256;140934;-67
2023/12/06 08:23:54;;;;;;;87.20;38.40;;;;;;;-4.46;84.66;99830.39;218963;1257;141177;-68
2023/12/06 08:29:00;;;;;;;73.60;36.00;;;;;;;-4.40;84.93;99833.38;218948;1257;141288;-69
2023/12/06 08:34:04;;;;;;;62.90;31.00;;;;;;;-4.23;84.85;99834.44;219394;1257;141227;-68
2023/12/06 08:39:09;;;;;;;81.30;39.00;;;;;;;-4.14;84.69;99834.65;219271;1256;140420;-68
2023/12/06 08:44:13;;;;;;;79.20;34.30;;;;;;;-3.96;84.82;99839.23;218608;1260;140417;-69
2023/12/06 08:49:17;;;;;;;53.00;25.00;;;;;;;-3.74;84.86;99842.14;218447;1256;140684;-72
2023/12/06 08:54:23;;;;;;;92.30;42.70;;;;;;;-3.61;84.53;99845.24;219079;1256;140633;-67
2023/12/06 08:59:29;;;;;;;79.40;36.80;;;;;;;-3.43;84.73;99840.08;217812;1256;141395;-71
2023/12/06 09:04:35;;;;;;;85.10;40.90;;;;;;;-3.30;84.34;99844.23;218033;1259;142351;-66
2023/12/06 09:09:39;;;;;;;99.00;44.80;;;;;;;-3.21;84.35;99845.77;218530;1257;140111;-69
2023/12/06 09:14:44;;;;;;;92.70;42.80;;;;;;;-3.08;84.23;99839.18;218079;1257;140483;-69
2023/12/06 09:19:48;;;;;;;102.40;44.30;;;;;;;-2.93;84.12;99840.39;217881;1256;140282;-73
2023/12/06 09:24:54;;;;;;;87.40;38.40;;;;;;;-2.83;83.92;99837.90;217954;1257;144733;-67
2023/12/06 09:29:59;;;;;;;86.80;41.10;;;;;;;-2.81;83.79;99838.41;217883;1257;141430;-66
2023/12/06 09:35:08;;;;;;;101.30;44.30;;;;;;;-2.71;83.72;99832.64;218187;1257;140511;-68
2023/12/06 09:40:15;;;;;;;93.40;43.50;;;;;;;-2.61;83.51;99829.45;217445;1262;140560;-68
2023/12/06 09:45:23;;;;;;;86.70;42.30;;;;;;;-2.56;83.07;99829.63;217784;1257;141551;-69
2023/12/06 09:50:30;;;;;;;81.10;37.60;;;;;;;-2.45;83.63;99827.16;219175;1257;140270;-66
2023/12/06 09:55:37;;;;;;;59.10;29.80;;;;;;;-2.25;83.46;99828.77;219106;1257;142863;-67
2023/12/06 10:00:41;;;;;;;74.80;35.40;;;;;;;-2.21;82.70;99822.83;217632;1257;140667;-67
2023/12/06 10:05:57;;;;;;;56.50;29.20;;;;;;;-2.15;82.86;99813.64;218255;1257;140477;-67
2023/12/06 10:11:12;;;;;;;89.00;45.00;;;;;;;-2.00;82.74;99809.34;217536;1257;140419;-67
2023/12/06 10:16:20;;;;;;;90.00;40.50;;;;;;;-1.80;82.79;99804.71;217768;1257;140438;-69
2023/12/06 10:21:25;;;;;;;94.20;42.80;;;;;;;-1.65;82.87;99806.54;218214;1257;141245;-68
2023/12/06 10:26:31;;;;;;;73.00;34.40;;;;;;;-1.54;82.60;99804.17;219252;1257;141029;-68
2023/12/06 10:31:45;;;;;;;60.20;28.90;;;;;;;-1.59;81.65;99800.34;217530;1261;140804;-72
2023/12/06 10:36:55;;;;;;;63.00;29.20;;;;;;;-1.62;81.82;99795.31;218329;1259;141624;-69
2023/12/06 10:42:08;;;;;;;51.90;27.90;;;;;;;-1.60;81.92;99790.08;218860;1257;141518;-71
2023/12/06 10:47:14;;;;;;;64.30;33.80;;;;;;;-1.49;81.91;99778.60;219136;1257;140971;-68
2023/12/06 10:52:20;;;;;;;71.80;32.50;;;;;;;-1.42;81.73;99770.88;218396;1257;140502;-68
2023/12/06 10:57:26;;;;;;;75.50;40.90;;;;;;;-1.31;81.74;99774.33;218769;1257;140955;-69
2023/12/06 11:02:31;;;;;;;64.80;35.60;;;;;;;-1.33;81.41;99774.67;218260;1257;140735;-70
2023/12/06 11:07:58;;;;;;;74.10;35.50;;;;;;;-1.20;81.63;99775.80;218767;1257;141362;-69
2023/12/06 11:13:33;;;;;;;75.40;36.60;;;;;;;-0.98;82.12;99779.63;218433;1258;141251;-67
2023/12/06 11:18:48;;;;;;;66.90;37.20;;;;;;;-0.90;81.39;99772.48;217483;1260;140399;-69
2023/12/06 11:23:55;;;;;;;69.60;33.70;;;;;;;-1.02;80.95;99774.77;217590;1258;141913;-67
2023/12/06 11:29:00;;;;;;;85.40;39.00;;;;;;;-1.17;81.13;99771.39;217410;1262;142197;-67
2023/12/06 11:34:11;;;;;;;85.80;38.10;;;;;;;-1.12;81.69;99770.85;217529;1259;140493;-67
2023/12/06 11:39:17;;;;;;;81.00;36.60;;;;;;;-0.96;81.61;99767.58;218107;1257;140503;-70
2023/12/06 11:44:23;;;;;;;91.80;41.60;;;;;;;-0.88;81.70;99766.10;217990;1257;141517;-68
2023/12/06 11:49:29;;;;;;;94.10;45.00;;;;;;;-0.75;81.69;99767.77;217693;1257;140388;-67
2023/12/06 11:54:33;;;;;;;91.50;40.30;;;;;;;-0.69;81.64;99770.99;218549;1257;140373;-71
2023/12/06 11:59:41;;;;;;;80.90;36.60;;;;;;;-0.68;81.37;99772.36;218213;1258;152335;-72
2023/12/06 12:04:50;;;;;;;89.30;40.70;;;;;;;-0.69;81.34;99769.23;218015;1259;140396;-70
2023/12/06 12:09:55;;;;;;;86.60;40.50;;;;;;;-0.66;81.26;99770.30;217992;1261;140344;-69
2023/12/06 12:15:00;;;;;;;90.50;41.30;;;;;;;-0.71;80.98;99768.86;218160;1258;140489;-68
2023/12/06 12:20:05;;;;;;;66.40;31.70;;;;;;;-0.78;81.40;99769.92;219812;1257;140730;-67
2023/12/06 12:25:10;;;;;;;91.50;45.30;;;;;;;-0.83;80.95;99772.71;218787;1257;141093;-67
2023/12/06 12:30:15;;;;;;;95.90;46.10;;;;;;;-0.85;81.06;99773.54;218372;1257;140416;-68
2023/12/06 12:35:21;;;;;;;99.30;44.00;;;;;;;-0.85;81.19;99770.49;219603;1257;141336;-66
2023/12/06 12:40:27;;;;;;;87.90;42.90;;;;;;;-0.81;80.81;99769.23;219917;1257;140901;-68
2023/12/06 12:45:33;;;;;;;86.60;37.50;;;;;;;-0.78;80.72;99768.61;217998;1257;140722;-65
2023/12/06 12:50:37;;;;;;;85.50;40.20;;;;;;;-0.77;81.09;99765.55;219885;1257;211253;-66
2023/12/06 12:55:43;;;;;;;94.90;42.70;;;;;;;-0.76;80.61;99763.13;219397;1259;140339;-65
2023/12/06 13:00:51;;;;;;;88.30;40.20;;;;;;;-0.74;80.84;99766.43;218142;1258;141180;-65
2023/12/06 13:05:56;;;;;;;88.80;44.10;;;;;;;-0.79;80.79;99767.27;217686;1257;140397;-65
2023/12/06 13:11:01;;;;;;;63.30;32.10;;;;;;;-0.86;81.05;99769.21;217986;1261;141367;-67
2023/12/06 13:16:07;;;;;;;76.70;36.70;;;;;;;-1.04;80.45;99778.44;217859;1257;140668;-66
2023/12/06 13:21:11;;;;;;;64.50;30.30;;;;;;;-1.20;80.56;99776.05;218682;1259;140380;-70
2023/12/06 13:26:15;;;;;;;59.40;28.50;;;;;;;-1.40;80.44;99776.95;218715;1257;140290;-70
2023/12/06 13:31:20;;;;;;;66.40;33.60;;;;;;;-1.59;80.53;99776.63;218535;1258;141428;-67
2023/12/06 13:36:25;;;;;;;83.70;39.10;;;;;;;-1.62;81.20;99781.52;217735;1259;141772;-67
2023/12/06 13:41:29;;;;;;;84.00;40.10;;;;;;;-1.59;81.28;99789.91;218030;1260;140518;-68
2023/12/06 13:46:37;;;;;;;94.40;40.50;;;;;;;-1.60;81.35;99796.67;217751;1257;140360;-66
2023/12/06 13:51:41;;;;;;;82.20;40.10;;;;;;;-1.62;81.64;99797.90;218720;1257;140460;-68
2023/12/06 13:56:46;;;;;;;92.60;44.30;;;;;;;-1.68;81.18;99798.81;219028;1258;141562;-69
2023/12/06 14:01:54;;;;;;;81.70;37.30;;;;;;;-1.75;81.49;99801.64;218394;1260;140663;-68
2023/12/06 14:06:59;;;;;;;71.30;30.60;;;;;;;-1.80;81.59;99804.48;218070;1257;140465;-67
2023/12/06 14:12:05;;;;;;;69.50;29.50;;;;;;;-1.91;81.36;99807.61;217847;1261;141574;-69
2023/12/06 14:17:10;;;;;;;77.50;35.30;;;;;;;-2.02;81.31;99817.23;218177;1257;140896;-70
2023/12/06 14:22:14;;;;;;;65.10;34.90;;;;;;;-2.13;81.41;99816.08;218263;1257;140783;-70
2023/12/06 14:27:20;;;;;;;77.60;35.40;;;;;;;-2.33;81.27;99814.86;218826;1256;141191;-69
2023/12/06 14:32:27;;;;;;;56.10;27.30;;;;;;;-2.51;81.58;99817.52;218354;1257;140864;-66
2023/12/06 14:37:33;;;;;;;59.70;28.20;;;;;;;-2.67;81.67;99821.17;218834;1257;140636;-66
2023/12/06 14:42:39;;;;;;;63.80;30.70;;;;;;;-2.83;81.80;99828.26;218504;1257;140870;-67
2023/12/06 14:47:44;;;;;;;59.20;29.10;;;;;;;-2.92;82.12;99830.39;218256;1261;140861;-68
2023/12/06 14:52:48;;;;;;;70.50;32.20;;;;;;;-2.97;82.39;99829.64;218258;1257;141084;-67
2023/12/06 14:57:53;;;;;;;73.90;33.60;;;;;;;-2.94;82.66;99828.86;218185;1257;142019;-68
2023/12/06 15:02:57;;;;;;;84.10;38.80;;;;;;;-2.90;82.98;99835.27;217936;1262;140645;-67
2023/12/06 15:08:02;;;;;;;86.60;42.10;;;;;;;-2.84;83.28;99838.86;218474;1260;141687;-67
2023/12/06 15:13:08;;;;;;;84.50;40.90;;;;;;;-2.79;83.24;99834.69;218092;1257;141617;-68
2023/12/06 15:18:13;;;;;;;91.80;41.50;;;;;;;-2.76;83.13;99838.27;218022;1260;140861;-68
2023/12/06 15:23:18;;;;;;;93.50;41.50;;;;;;;-2.78;83.32;99846.92;217534;1257;140728;-70
2023/12/06 15:28:23;;;;;;;101.70;40.50;;;;;;;-2.78;83.49;99858.98;217913;1259;140231;-71
2023/12/06 15:33:28;;;;;;;90.60;39.80;;;;;;;-2.79;83.57;99860.23;217871;1261;140793;-67
2023/12/06 15:38:34;;;;;;;99.40;47.40;;;;;;;-2.77;83.55;99861.84;217701;1260;140397;-67
2023/12/06 15:43:40;;;;;;;106.50;46.70;;;;;;;-2.78;83.54;99859.98;218226;1261;141670;-67
2023/12/06 15:48:47;;;;;;;100.40;45.20;;;;;;;-2.77;83.69;99860.44;218376;1260;141299;-67
2023/12/06 15:53:54;;;;;;;99.10;47.00;;;;;;;-2.76;83.67;99863.81;217582;1261;142102;-67
2023/12/06 15:58:58;;;;;;;92.50;43.40;;;;;;;-2.75;83.70;99864.39;218118;1257;142027;-68
2023/12/06 16:04:04;;;;;;;96.40;47.40;;;;;;;-2.77;83.72;99857.98;217537;1260;141074;-69
2023/12/06 16:09:10;;;;;;;72.90;37.40;;;;;;;-2.80;83.84;99868.69;218698;1261;140408;-70
2023/12/06 16:14:14;;;;;;;78.20;36.30;;;;;;;-2.83;83.80;99873.16;219660;1259;140860;-68
2023/12/06 16:19:22;;;;;;;81.30;35.40;;;;;;;-2.85;83.78;99875.09;218745;1258;140872;-68
2023/12/06 16:24:37;;;;;;;101.20;47.90;;;;;;;-2.87;83.89;99882.79;217899;1257;140576;-69
2023/12/06 16:29:42;;;;;;;55.30;28.00;;;;;;;-2.88;84.12;99886.14;218806;1259;141310;-67
2023/12/06 16:34:50;;;;;;;76.90;32.50;;;;;;;-2.92;83.95;99888.30;218682;1259;140572;-68
2023/12/06 16:39:55;;;;;;;76.70;35.10;;;;;;;-3.00;83.99;99890.83;217683;1260;140465;-68
2023/12/06 16:45:01;;;;;;;76.00;39.90;;;;;;;-3.10;84.12;99895.69;218278;1261;141583;-67
2023/12/06 16:50:09;;;;;;;61.90;29.30;;;;;;;-3.16;84.28;99896.77;218226;1259;141880;-69
2023/12/06 16:55:14;;;;;;;64.80;30.30;;;;;;;-3.17;84.53;99902.78;217397;1261;140596;-68
2023/12/06 17:00:18;;;;;;;66.90;32.40;;;;;;;-3.20;84.67;99906.17;217793;1259;140447;-67
2023/12/06 17:05:23;;;;;;;66.10;30.90;;;;;;;-3.20;84.90;99909.66;217839;1262;142537;-67
2023/12/06 17:10:29;;;;;;;86.60;41.80;;;;;;;-3.21;84.89;99907.71;218195;1259;145360;-67
2023/12/06 17:15:34;;;;;;;85.00;42.40;;;;;;;-3.19;85.20;99905.45;217933;1261;140834;-67
2023/12/06 17:20:42;;;;;;;79.80;38.90;;;;;;;-3.17;85.29;99906.93;218212;1259;141794;-68
2023/12/06 17:25:47;;;;;;;77.70;35.60;;;;;;;-3.16;85.22;99910.33;217919;1259;141747;-67
2023/12/06 17:30:52;;;;;;;72.90;37.00;;;;;;;-3.17;85.24;99915.83;217492;1260;140582;-66
2023/12/06 17:35:57;;;;;;;56.90;30.00;;;;;;;-3.20;85.44;99923.77;217545;1257;141802;-67
2023/12/06 17:41:02;;;;;;;79.00;35.40;;;;;;;-3.25;85.57;99919.41;217624;1259;140564;-66
2023/12/06 17:46:09;;;;;;;63.60;32.00;;;;;;;-3.26;85.79;99917.77;217602;1257;142506;-66
2023/12/06 17:51:15;;;;;;;72.70;34.60;;;;;;;-3.28;85.79;99923.11;217644;1259;140384;-66
2023/12/06 17:56:20;;;;;;;54.90;27.10;;;;;;;-3.30;85.81;99925.76;218443;1261;141315;-70
2023/12/06 18:01:28;;;;;;;69.00;27.40;;;;;;;-3.29;86.24;99921.83;217587;1261;141188;-67
2023/12/06 18:06:33;;;;;;;63.10;26.10;;;;;;;-3.24;86.09;99920.54;217948;1261;140508;-67
2023/12/06 18:11:38;;;;;;;55.70;27.50;;;;;;;-3.25;86.13;99922.38;218891;1257;141671;-67
2023/12/06 18:16:43;;;;;;;53.40;27.80;;;;;;;-3.28;86.14;99923.48;218505;1257;141491;-69
2023/12/06 18:21:48;;;;;;;49.60;21.10;;;;;;;-3.23;86.30;99920.58;217952;1261;141558;-68
2023/12/06 18:26:53;;;;;;;62.50;30.60;;;;;;;-3.19;86.17;99917.77;219696;1260;141191;-68
2023/12/06 18:32:00;;;;;;;65.00;31.90;;;;;;;-3.16;86.16;99919.55;218415;1259;379765;-67
2023/12/06 18:37:05;;;;;;;58.70;27.60;;;;;;;-3.15;86.28;99927.61;217946;1257;141335;-70
2023/12/06 18:42:10;;;;;;;69.30;31.40;;;;;;;-3.15;86.17;99931.08;217943;1260;140633;-68
2023/12/06 18:47:16;;;;;;;70.20;31.80;;;;;;;-3.16;86.09;99932.59;217910;1259;140947;-71
2023/12/06 18:52:22;;;;;;;75.90;31.50;;;;;;;-3.15;86.36;99935.98;217470;1260;141277;-69
2023/12/06 18:57:28;;;;;;;54.10;27.40;;;;;;;-3.14;86.45;99937.70;217805;1262;142281;-69
2023/12/06 19:02:32;;;;;;;55.80;28.90;;;;;;;-3.14;86.36;99942.14;218135;1258;141394;-70
2023/12/06 19:07:36;;;;;;;51.20;24.10;;;;;;;-3.15;86.36;99947.84;217649;1261;140641;-66
2023/12/06 19:12:41;;;;;;;55.00;28.40;;;;;;;-3.19;86.26;99951.64;217792;1260;140609;-68
2023/12/06 19:17:46;;;;;;;57.40;25.50;;;;;;;-3.18;86.40;99957.15;218398;1258;142119;-69
2023/12/06 19:22:52;;;;;;;53.00;24.30;;;;;;;-3.18;86.42;99957.88;217886;1261;140419;-70
2023/12/06 19:27:56;;;;;;;62.30;24.60;;;;;;;-3.17;86.57;99962.42;217449;1262;140818;-66
2023/12/06 19:33:02;;;;;;;69.00;30.30;;;;;;;-3.17;86.47;99963.63;217920;1259;141904;-68
2023/12/06 19:38:06;;;;;;;73.90;32.10;;;;;;;-3.17;86.63;99967.64;217612;1260;141073;-66
2023/12/06 19:43:13;;;;;;;66.90;28.00;;;;;;;-3.15;86.70;99963.63;217527;1258;142829;-68
2023/12/06 19:48:19;;;;;;;44.50;22.20;;;;;;;-3.11;86.96;99961.89;218488;1261;140579;-69
2023/12/06 19:53:26;;;;;;;67.90;32.50;;;;;;;-3.10;86.94;99964.16;218498;1261;142352;-68
2023/12/06 19:58:30;;;;;;;65.20;31.70;;;;;;;-3.05;87.04;99966.55;218433;1261;140897;-67
2023/12/06 20:03:35;;;;;;;72.00;35.10;;;;;;;-2.99;87.02;99967.77;218464;1261;140826;-69
2023/12/06 20:08:39;;;;;;;69.50;34.30;;;;;;;-2.98;86.87;99972.13;218117;1257;141257;-66
2023/12/06 20:13:43;;;;;;;61.20;30.20;;;;;;;-2.96;86.98;99969.86;218647;1260;141169;-69
2023/12/06 20:18:47;;;;;;;74.40;35.00;;;;;;;-2.96;87.11;99975.06;219587;1257;141028;-68
2023/12/06 20:23:53;;;;;;;64.80;26.40;;;;;;;-2.90;87.25;99976.29;218490;1261;140706;-67
2023/12/06 20:28:56;;;;;;;74.50;32.20;;;;;;;-2.87;87.20;99979.63;218272;1260;141321;-67
2023/12/06 20:34:02;;;;;;;63.00;30.30;;;;;;;-2.85;87.36;99981.68;218315;1261;162653;-67
2023/12/06 20:39:09;;;;;;;66.00;30.40;;;;;;;-2.80;87.38;99982.30;218369;1261;141662;-67
2023/12/06 20:44:17;;;;;;;71.60;28.70;;;;;;;-2.77;87.52;99982.83;217916;1261;141116;-66
2023/12/06 20:49:24;;;;;;;55.80;27.70;;;;;;;-2.75;87.35;99986.79;217596;1258;141050;-66
2023/12/06 20:54:29;;;;;;;77.40;32.60;;;;;;;-2.75;87.43;99989.98;218689;1262;141772;-66
2023/12/06 20:59:33;;;;;;;71.40;28.10;;;;;;;-2.75;87.51;99993.27;218081;1257;141996;-66
2023/12/06 21:04:39;;;;;;;60.20;27.60;;;;;;;-2.72;87.45;99992.79;218323;1260;141818;-66
2023/12/06 21:09:44;;;;;;;61.50;26.00;;;;;;;-2.71;87.63;99995.16;217947;1261;140416;-67
2023/12/06 21:14:50;;;;;;;69.30;28.20;;;;;;;-2.74;87.54;99995.73;217910;1262;141584;-67
2023/12/06 21:19:58;;;;;;;82.10;34.20;;;;;;;-2.76;87.77;99998.88;218639;1261;141311;-67
2023/12/06 21:25:04;;;;;;;79.90;34.10;;;;;;;-2.71;87.94;99998.30;218138;1260;142749;-66
2023/12/06 21:30:37;;;;;;;75.80;30.90;;;;;;;-2.69;87.80;99999.65;217491;1259;140565;-66
2023/12/06 21:35:43;;;;;;;60.40;28.10;;;;;;;-2.72;87.71;100006.17;217438;1258;140682;-68
2023/12/06 21:40:50;;;;;;;49.50;21.90;;;;;;;-2.72;87.66;100012.65;217931;1257;140831;-66
2023/12/06 21:45:55;;;;;;;68.60;29.10;;;;;;;-2.72;87.91;100013.17;217905;1257;141335;-67
2023/12/06 21:51:00;;;;;;;67.40;34.30;;;;;;;-2.69;88.12;100018.80;218623;1262;140802;-65
2023/12/06 21:56:05;;;;;;;59.80;27.40;;;;;;;-2.63;88.22;100020.16;219331;1258;140857;-67
2023/12/06 22:01:13;;;;;;;39.80;18.80;;;;;;;-2.58;88.11;100019.54;218632;1262;141433;-69
2023/12/06 22:06:19;;;;;;;62.80;30.10;;;;;;;-2.54;88.21;100016.30;218258;1261;141113;-68
2023/12/06 22:11:24;;;;;;;59.40;27.30;;;;;;;-2.49;87.98;100024.23;220015;1257;142673;-68
2023/12/06 22:16:28;;;;;;;63.60;32.80;;;;;;;-2.45;87.92;100024.73;217897;1261;141826;-66
2023/12/06 22:21:33;;;;;;;76.20;32.80;;;;;;;-2.42;88.11;100029.15;218569;1261;141081;-68
2023/12/06 22:26:38;;;;;;;65.90;30.00;;;;;;;-2.40;88.10;100038.16;219793;1258;141325;-66
2023/12/06 22:31:42;;;;;;;66.50;29.90;;;;;;;-2.31;88.11;100044.14;218159;1257;140648;-67
2023/12/06 22:36:47;;;;;;;74.90;32.50;;;;;;;-2.27;88.10;100036.41;218963;1261;140402;-68
2023/12/06 22:41:53;;;;;;;73.30;33.40;;;;;;;-2.21;88.12;100033.27;219382;1257;140990;-69
2023/12/06 22:46:57;;;;;;;76.40;32.50;;;;;;;-2.16;88.36;100034.35;217942;1261;140440;-67
2023/12/06 22:52:02;;;;;;;73.20;32.60;;;;;;;-2.13;88.08;100035.92;217897;1263;140518;-69
2023/12/06 22:57:07;;;;;;;82.20;36.60;;;;;;;-2.13;88.29;100029.63;217636;1261;140492;-68
2023/12/06 23:02:18;;;;;;;67.10;30.90;;;;;;;-2.11;88.33;100034.33;217925;1258;140667;-69
2023/12/06 23:07:24;;;;;;;60.80;28.00;;;;;;;-2.11;88.12;100034.02;218259;1257;163155;-69
2023/12/06 23:12:31;;;;;;;73.90;32.90;;;;;;;-2.12;88.42;100034.11;217622;1261;141565;-70
2023/12/06 23:17:37;;;;;;;82.50;35.90;;;;;;;-2.08;88.39;100035.80;217814;1262;140502;-67
2023/12/06 23:23:04;;;;;;;98.40;40.50;;;;;;;-2.03;88.50;100036.38;217916;1258;140877;-72
2023/12/06 23:28:10;;;;;;;109.50;42.70;;;;;;;-2.00;88.61;100034.55;218384;1257;140984;-70
2023/12/06 23:33:17;;;;;;;97.50;43.80;;;;;;;-1.99;88.52;100031.27;217703;1257;140892;-71
2023/12/06 23:38:26;;;;;;;79.70;32.40;;;;;;;-1.98;88.54;100025.68;217418;1261;141101;-72
2023/12/06 23:43:33;;;;;;;74.70;36.50;;;;;;;-1.98;88.58;100024.97;217686;1258;140633;-69
2023/12/06 23:48:40;;;;;;;;;;;;;;;-1.98;88.58;100027.58;217650;1257;140339;-73
2023/12/06 23:53:47;;;;;;;74.20;31.90;;;;;;;-1.99;88.56;100031.16;219147;1257;127117;-72
2023/12/06 23:58:53;;;;;;;89.80;40.50;;;;;;;-2.00;88.70;100032.63;218178;1261;140598;-73
